createdAt,value
2019-05-22T00:00:29.316Z,64.97
2019-05-22T00:03:03.068Z,68.53
2019-05-22T00:05:34.080Z,62.00
2019-05-22T00:08:05.184Z,62.20
2019-05-22T00:10:34.695Z,65.40
2019-05-22T00:13:04.506Z,70.40
2019-05-22T00:15:33.408Z,61.53
2019-05-22T00:18:02.844Z,59.33
2019-05-22T00:20:31.596Z,66.50
2019-05-22T00:23:04.070Z,75.07
2019-05-22T00:25:33.431Z,58.47
2019-05-22T00:28:04.881Z,59.40
2019-05-22T00:30:41.191Z,64.47
2019-05-22T00:33:11.207Z,65.03
2019-05-22T00:35:42.139Z,62.27
2019-05-22T00:38:11.861Z,61.80
2019-05-22T00:40:42.985Z,58.13
2019-05-22T00:43:14.462Z,58.80
2019-05-22T00:45:45.710Z,52.10
2019-05-22T00:49:31.165Z,50.50
2019-05-22T00:52:19.591Z,65.03
2019-05-22T00:54:50.915Z,49.83
2019-05-22T00:57:29.931Z,48.10
2019-05-22T01:00:00.030Z,55.87
2019-05-22T01:02:28.539Z,50.63
2019-05-22T01:04:58.134Z,54.27
2019-05-22T01:07:31.940Z,51.57
2019-05-22T01:10:02.587Z,60.93
2019-05-22T01:12:37.852Z,56.93
2019-05-22T01:15:08.305Z,50.03
2019-05-22T01:17:37.016Z,47.70
2019-05-22T01:20:11.694Z,52.37
2019-05-22T01:22:42.479Z,62.33
2019-05-22T01:25:14.356Z,49.37
2019-05-22T01:27:43.838Z,38.90
2019-05-22T01:30:26.377Z,51.53
2019-05-22T01:32:56.629Z,42.73
2019-05-22T01:35:40.346Z,34.23
2019-05-22T01:38:11.844Z,41.17
2019-05-22T01:40:50.965Z,40.00
2019-05-22T01:43:21.040Z,37.90
2019-05-22T01:45:52.398Z,41.60
2019-05-22T01:48:26.945Z,37.23
2019-05-22T01:50:57.382Z,34.07
2019-05-22T01:53:29.123Z,44.00
2019-05-22T01:55:58.506Z,44.63
2019-05-22T01:58:28.358Z,42.17
2019-05-22T02:00:57.858Z,36.67
2019-05-22T02:03:27.856Z,39.33
2019-05-22T02:05:56.911Z,36.83
2019-05-22T02:08:27.737Z,36.60
2019-05-22T02:11:00.017Z,39.73
2019-05-22T02:13:44.949Z,46.53
2019-05-22T02:16:14.485Z,37.47
2019-05-22T02:18:46.041Z,38.73
2019-05-22T02:21:16.623Z,39.57
2019-05-22T02:23:46.110Z,50.27
2019-05-22T02:26:16.372Z,36.33
2019-05-22T02:28:46.166Z,45.07
2019-05-22T02:31:19.798Z,42.97
2019-05-22T02:34:01.421Z,56.47
2019-05-22T02:36:30.901Z,47.40
2019-05-22T02:39:01.027Z,50.73
2019-05-22T02:41:34.189Z,63.17
2019-05-22T02:44:03.294Z,51.43
2019-05-22T02:46:31.902Z,61.10
2019-05-22T02:49:01.943Z,48.03
2019-05-22T02:51:30.754Z,50.07
2019-05-22T02:54:01.848Z,48.40
2019-05-22T02:56:31.492Z,53.10
2019-05-22T02:59:00.360Z,45.57
2019-05-22T03:01:29.953Z,56.03
2019-05-22T03:03:59.504Z,43.67
2019-05-22T03:06:29.178Z,46.07
2019-05-22T03:09:05.022Z,52.20
2019-05-22T03:11:41.495Z,48.33
2019-05-22T03:14:11.198Z,50.93
2019-05-22T03:17:04.536Z,52.57
2019-05-22T03:19:45.425Z,56.90
2019-05-22T03:22:35.712Z,45.33
2019-05-22T03:25:07.756Z,48.03
2019-05-22T03:27:45.292Z,48.93
2019-05-22T03:30:24.302Z,60.07
2019-05-22T03:32:55.230Z,61.97
2019-05-22T03:35:26.203Z,55.03
2019-05-22T03:37:56.979Z,45.63
2019-05-22T03:40:28.125Z,43.33
2019-05-22T03:42:57.270Z,40.43
2019-05-22T03:45:26.253Z,47.77
2019-05-22T03:47:57.649Z,45.20
2019-05-22T03:50:28.538Z,42.83
2019-05-22T03:53:00.472Z,48.87
2019-05-22T03:55:29.026Z,46.90
2019-05-22T03:57:58.315Z,51.03
2019-05-22T04:00:27.973Z,48.40
2019-05-22T04:02:57.098Z,43.10
2019-05-22T04:05:27.713Z,41.10
2019-05-22T04:07:58.227Z,41.43
2019-05-22T04:10:28.988Z,62.93
2019-05-22T04:12:57.573Z,47.43
2019-05-22T04:15:26.490Z,41.63
2019-05-22T04:17:56.438Z,48.03
2019-05-22T04:20:26.105Z,47.77
2019-05-22T04:22:58.552Z,52.40
2019-05-22T04:25:27.766Z,45.47
2019-05-22T04:27:56.993Z,53.33
2019-05-22T04:30:25.986Z,46.00
2019-05-22T04:32:55.234Z,44.10
2019-05-22T04:35:24.431Z,41.37
2019-05-22T04:37:52.848Z,33.90
2019-05-22T04:40:28.112Z,42.97
2019-05-22T04:42:58.585Z,43.73
2019-05-22T04:45:28.252Z,33.03
2019-05-22T04:48:02.725Z,38.83
2019-05-22T04:50:32.270Z,50.13
2019-05-22T04:53:01.158Z,31.67
2019-05-22T04:55:30.710Z,33.10
2019-05-22T04:58:01.551Z,35.20
2019-05-22T05:00:31.859Z,31.07
2019-05-22T05:03:00.724Z,38.70
2019-05-22T05:05:30.931Z,31.17
2019-05-22T05:08:00.508Z,31.80
2019-05-22T05:10:29.374Z,25.67
2019-05-22T05:12:59.302Z,31.60
2019-05-22T05:15:27.808Z,23.67
2019-05-22T05:17:56.307Z,43.20
2019-05-22T05:20:24.888Z,33.67
2019-05-22T05:22:53.887Z,33.40
2019-05-22T05:25:23.955Z,35.50
2019-05-22T05:27:52.590Z,44.53
2019-05-22T05:30:22.654Z,30.17
2019-05-22T05:32:51.587Z,31.13
2019-05-22T05:35:20.500Z,32.00
2019-05-22T05:37:49.683Z,33.63
2019-05-22T05:40:34.825Z,29.93
2019-05-22T05:43:06.831Z,27.27
2019-05-22T05:45:36.008Z,44.00
2019-05-22T05:48:07.473Z,38.90
2019-05-22T05:50:42.743Z,28.00
2019-05-22T05:53:16.529Z,33.43
2019-05-22T05:56:11.597Z,27.97
2019-05-22T05:58:40.873Z,30.10
2019-05-22T06:01:16.986Z,31.00
2019-05-22T06:03:45.689Z,32.83
2019-05-22T06:06:31.057Z,30.10
2019-05-22T06:09:22.400Z,29.07
2019-05-22T06:11:55.566Z,27.00
2019-05-22T06:14:35.961Z,34.23
2019-05-22T06:17:36.281Z,28.30
2019-05-22T06:20:13.397Z,27.37
2019-05-22T06:22:45.301Z,31.27
2019-05-22T06:25:19.178Z,26.73
2019-05-22T06:27:55.097Z,42.03
2019-05-22T06:30:29.999Z,31.77
2019-05-22T06:33:14.122Z,31.27
2019-05-22T06:35:48.094Z,30.70
2019-05-22T06:38:41.089Z,28.37
2019-05-22T06:41:13.719Z,29.33
2019-05-22T06:43:46.814Z,32.47
2019-05-22T06:46:19.780Z,29.47
2019-05-22T06:48:58.873Z,29.63
2019-05-22T06:51:19.799Z,27.47
2019-05-22T06:53:48.630Z,26.37
2019-05-22T06:56:23.856Z,27.17
2019-05-22T06:58:54.763Z,27.60
2019-05-22T07:01:30.910Z,28.23
2019-05-22T07:04:03.629Z,26.47
2019-05-22T07:06:37.511Z,29.57
2019-05-22T07:09:11.131Z,34.93
2019-05-22T07:11:46.838Z,38.77
2019-05-22T07:14:20.063Z,29.20
2019-05-22T07:16:53.349Z,30.40
2019-05-22T07:19:27.397Z,39.40
2019-05-22T07:22:01.229Z,26.00
2019-05-22T07:24:31.427Z,26.23
2019-05-22T07:27:06.400Z,35.07
2019-05-22T07:29:36.421Z,29.43
2019-05-22T07:32:06.199Z,29.57
2019-05-22T07:34:38.074Z,32.33
2019-05-22T07:37:10.777Z,34.40
2019-05-22T07:39:39.715Z,29.33
2019-05-22T07:42:08.625Z,31.50
2019-05-22T07:44:38.898Z,33.93
2019-05-22T07:47:11.566Z,31.30
2019-05-22T07:49:50.919Z,31.70
2019-05-22T07:52:22.877Z,37.33
2019-05-22T07:54:55.601Z,26.57
2019-05-22T07:57:30.509Z,29.77
2019-05-22T08:00:02.897Z,32.30
2019-05-22T08:02:38.736Z,27.67
2019-05-22T08:05:11.559Z,39.87
2019-05-22T08:07:43.663Z,25.70
2019-05-22T08:10:21.665Z,26.50
2019-05-22T08:12:56.250Z,34.70
2019-05-22T08:15:30.751Z,28.67
2019-05-22T08:18:04.091Z,31.73
2019-05-22T08:20:35.322Z,33.23
2019-05-22T08:23:08.715Z,33.97
2019-05-22T08:25:44.602Z,32.10
2019-05-22T08:28:16.748Z,29.63
2019-05-22T08:30:53.545Z,34.37
2019-05-22T08:33:26.823Z,27.33
2019-05-22T08:35:59.234Z,26.93
2019-05-22T08:38:34.782Z,31.73
2019-05-22T08:41:08.702Z,24.30
2019-05-22T08:44:03.455Z,26.97
2019-05-22T08:46:15.827Z,23.10
2019-05-22T08:48:49.709Z,30.90
2019-05-22T08:51:20.732Z,30.00
2019-05-22T08:53:51.550Z,24.67
2019-05-22T08:56:20.284Z,24.90
2019-05-22T08:58:55.097Z,30.53
2019-05-22T09:01:25.376Z,21.10
2019-05-22T09:03:58.650Z,24.53
2019-05-22T09:06:27.573Z,25.57
2019-05-22T09:08:56.439Z,26.17
2019-05-22T09:11:26.925Z,25.97
2019-05-22T09:14:01.403Z,30.30
2019-05-22T09:16:33.535Z,26.07
2019-05-22T09:19:02.607Z,27.57
2019-05-22T09:21:32.277Z,23.37
2019-05-22T09:24:02.886Z,22.47
2019-05-22T09:26:37.716Z,26.93
2019-05-22T09:29:11.175Z,22.03
2019-05-22T09:31:41.678Z,26.10
2019-05-22T09:34:10.766Z,29.37
2019-05-22T09:36:39.621Z,23.80
2019-05-22T09:39:11.976Z,21.80
2019-05-22T09:41:44.445Z,28.77
2019-05-22T09:46:52.023Z,24.83
2019-05-22T09:51:59.499Z,29.10
2019-05-22T09:54:27.743Z,24.87
2019-05-22T09:56:56.435Z,25.20
2019-05-22T09:59:28.866Z,22.03
2019-05-22T10:02:01.914Z,30.77
2019-05-22T10:04:35.385Z,29.67
2019-05-22T10:07:05.737Z,29.07
2019-05-22T10:09:34.955Z,23.97
2019-05-22T10:12:04.642Z,31.87
2019-05-22T10:14:36.715Z,22.53
2019-05-22T10:17:10.370Z,20.47
2019-05-22T10:19:40.276Z,22.07
2019-05-22T10:22:10.565Z,28.17
2019-05-22T10:24:39.981Z,24.50
2019-05-22T10:27:13.348Z,17.23
2019-05-22T10:29:45.214Z,15.83
2019-05-22T10:32:15.399Z,18.70
2019-05-22T10:34:44.094Z,21.73
2019-05-22T10:37:15.595Z,23.60
2019-05-22T10:39:48.181Z,24.40
2019-05-22T10:42:22.131Z,25.83
2019-05-22T10:44:53.218Z,22.87
2019-05-22T10:47:26.691Z,20.60
2019-05-22T10:49:53.652Z,23.97
2019-05-22T10:52:24.030Z,21.90
2019-05-22T10:54:57.005Z,15.93
2019-05-22T10:57:28.643Z,17.93
2019-05-22T11:00:03.019Z,15.93
2019-05-22T11:02:28.789Z,22.17
2019-05-22T11:04:59.933Z,27.17
2019-05-22T11:07:32.377Z,25.70
2019-05-22T11:10:05.924Z,19.50
2019-05-22T11:12:39.575Z,16.70
2019-05-22T11:15:12.905Z,17.63
2019-05-22T11:17:42.792Z,18.33
2019-05-22T11:20:13.083Z,19.93
2019-05-22T11:22:42.102Z,19.40
2019-05-22T11:25:15.919Z,18.93
2019-05-22T11:27:48.015Z,20.90
2019-05-22T11:30:22.501Z,21.77
2019-05-22T11:32:58.309Z,20.27
2019-05-22T11:35:30.144Z,18.60
2019-05-22T11:37:58.651Z,19.53
2019-05-22T11:40:28.020Z,21.47
2019-05-22T11:42:58.017Z,17.57
2019-05-22T11:45:31.343Z,17.90
2019-05-22T11:48:07.277Z,14.13
2019-05-22T11:50:40.352Z,14.23
2019-05-22T11:53:13.487Z,14.77
2019-05-22T11:55:49.435Z,21.23
2019-05-22T11:58:21.790Z,13.17
2019-05-22T12:00:57.722Z,16.40
2019-05-22T12:03:30.427Z,16.40
2019-05-22T12:06:05.305Z,19.30
2019-05-22T12:08:38.640Z,21.20
2019-05-22T12:11:12.448Z,16.20
2019-05-22T12:13:46.132Z,18.50
2019-05-22T12:16:17.051Z,17.47
2019-05-22T12:18:46.819Z,20.93
2019-05-22T12:21:15.689Z,21.10
2019-05-22T12:23:48.562Z,30.63
2019-05-22T12:26:21.508Z,20.23
2019-05-22T12:28:55.566Z,16.47
2019-05-22T12:31:29.136Z,18.23
2019-05-22T12:33:59.384Z,20.97
2019-05-22T12:36:29.238Z,14.83
2019-05-22T12:38:58.876Z,16.40
2019-05-22T12:41:31.454Z,16.60
2019-05-22T12:44:03.211Z,19.17
2019-05-22T12:46:32.471Z,19.63
2019-05-22T12:49:01.519Z,16.23
2019-05-22T12:51:35.036Z,21.60
2019-05-22T12:54:06.078Z,17.67
2019-05-22T12:56:39.495Z,20.93
2019-05-22T12:59:13.353Z,18.57
2019-05-22T13:01:44.438Z,20.13
2019-05-22T13:04:14.284Z,21.27
2019-05-22T13:06:42.869Z,20.70
2019-05-22T13:09:17.006Z,26.53
2019-05-22T13:11:50.385Z,23.60
2019-05-22T13:14:23.130Z,20.20
2019-05-22T13:16:56.179Z,21.67
2019-05-22T13:19:30.710Z,22.83
2019-05-22T13:22:04.879Z,20.43
2019-05-22T13:24:39.550Z,18.17
2019-05-22T13:27:12.641Z,25.73
2019-05-22T13:29:41.340Z,19.23
2019-05-22T13:32:13.842Z,24.13
2019-05-22T13:34:44.058Z,39.70
2019-05-22T13:37:15.410Z,18.00
2019-05-22T13:39:45.633Z,21.50
2019-05-22T13:42:14.469Z,16.77
2019-05-22T13:44:44.185Z,19.43
2019-05-22T13:47:15.123Z,26.03
2019-05-22T13:49:51.354Z,21.23
2019-05-22T13:52:23.975Z,20.93
2019-05-22T13:54:55.161Z,17.57
2019-05-22T13:57:24.082Z,21.13
2019-05-22T13:59:53.322Z,18.07
2019-05-22T14:02:27.134Z,23.10
2019-05-22T14:04:58.882Z,23.73
2019-05-22T14:07:35.230Z,13.13
2019-05-22T14:10:08.023Z,15.70
2019-05-22T14:12:41.221Z,16.40
2019-05-22T14:15:14.552Z,30.43
2019-05-22T14:17:50.650Z,19.93
2019-05-22T14:20:22.145Z,21.50
2019-05-22T14:22:54.719Z,20.50
2019-05-22T14:25:22.934Z,14.97
2019-05-22T14:30:27.337Z,24.43
2019-05-22T14:33:04.890Z,19.40
2019-05-22T14:35:47.774Z,19.03
2019-05-22T14:38:08.963Z,11.30
2019-05-22T14:40:40.228Z,16.10
2019-05-22T14:43:15.772Z,12.30
2019-05-22T14:45:47.648Z,15.23
2019-05-22T14:48:18.292Z,13.00
2019-05-22T14:50:46.974Z,10.50
2019-05-22T14:53:17.438Z,19.30
2019-05-22T14:55:50.849Z,18.57
2019-05-22T14:58:23.959Z,9.73
2019-05-22T15:00:53.195Z,19.33
2019-05-22T15:03:22.886Z,19.23
2019-05-22T15:05:51.768Z,12.07
2019-05-22T15:08:20.401Z,13.17
2019-05-22T15:10:48.976Z,16.03
2019-05-22T15:13:17.980Z,11.67
2019-05-22T15:15:47.046Z,13.00
2019-05-22T15:18:15.818Z,13.77
2019-05-22T15:20:51.773Z,13.03
2019-05-22T15:23:20.742Z,9.10
2019-05-22T15:25:53.305Z,10.33
2019-05-22T15:28:26.515Z,15.77
2019-05-22T15:30:53.714Z,16.03
2019-05-22T15:33:22.559Z,13.87
2019-05-22T15:35:51.841Z,9.73
2019-05-22T15:38:22.778Z,17.00
2019-05-22T15:40:53.118Z,12.20
2019-05-22T15:43:23.747Z,12.30
2019-05-22T15:45:53.306Z,15.70
2019-05-22T15:48:33.311Z,26.67
2019-05-22T15:51:06.767Z,12.57
2019-05-22T15:53:37.529Z,14.93
2019-05-22T15:56:08.592Z,12.73
2019-05-22T15:58:39.138Z,11.30
2019-05-22T16:01:08.926Z,16.07
2019-05-22T16:03:40.158Z,14.97
2019-05-22T16:06:10.642Z,15.43
2019-05-22T16:08:39.383Z,14.60
2019-05-22T16:11:09.824Z,20.40
2019-05-22T16:13:39.183Z,16.67
2019-05-22T16:16:09.727Z,13.10
2019-05-22T16:18:38.910Z,15.00
2019-05-22T16:21:09.953Z,18.23
2019-05-22T16:23:39.544Z,14.03
2019-05-22T16:26:09.660Z,13.20
2019-05-22T16:28:40.754Z,16.93
2019-05-22T16:31:10.524Z,18.07
2019-05-22T16:33:42.557Z,15.30
2019-05-22T16:36:12.112Z,18.57
2019-05-22T16:38:41.054Z,36.80
2019-05-22T16:41:10.624Z,18.23
2019-05-22T16:43:49.006Z,12.30
2019-05-22T16:46:14.057Z,16.50
2019-05-22T16:48:43.631Z,15.90
2019-05-22T16:51:18.351Z,14.10
2019-05-22T16:53:55.975Z,18.63
2019-05-22T16:56:26.233Z,14.53
2019-05-22T16:58:55.230Z,20.10
2019-05-22T17:01:25.789Z,17.10
2019-05-22T17:03:56.638Z,29.30
2019-05-22T17:06:26.171Z,21.23
2019-05-22T17:08:59.241Z,14.57
2019-05-22T17:11:28.436Z,20.07
2019-05-22T17:14:01.530Z,15.57
2019-05-22T17:16:32.317Z,12.17
2019-05-22T17:19:01.241Z,15.20
2019-05-22T17:21:29.725Z,14.53
2019-05-22T17:23:59.179Z,13.20
2019-05-22T17:26:28.463Z,15.20
2019-05-22T17:28:57.143Z,15.73
2019-05-22T17:31:27.393Z,11.20
2019-05-22T17:33:55.960Z,11.93
2019-05-22T17:36:25.614Z,11.63
2019-05-22T17:38:56.631Z,14.70
2019-05-22T17:41:27.827Z,11.07
2019-05-22T17:43:57.065Z,18.33
2019-05-22T17:46:28.145Z,12.27
2019-05-22T17:48:58.726Z,14.77
2019-05-22T17:51:27.981Z,10.10
2019-05-22T17:53:56.556Z,17.67
2019-05-22T17:56:26.318Z,19.03
2019-05-22T17:58:54.792Z,16.90
2019-05-22T18:01:24.222Z,13.73
2019-05-22T18:03:53.480Z,16.90
2019-05-22T18:06:24.014Z,11.50
2019-05-22T18:08:52.847Z,10.50
2019-05-22T18:11:21.419Z,12.27
2019-05-22T18:14:00.785Z,9.93
2019-05-22T18:16:30.556Z,15.97
2019-05-22T18:19:00.113Z,14.80
2019-05-22T18:21:28.596Z,20.50
2019-05-22T18:23:57.663Z,13.90
2019-05-22T18:26:26.792Z,9.23
2019-05-22T18:28:55.269Z,9.60
2019-05-22T18:31:23.837Z,10.60
2019-05-22T18:33:52.321Z,12.20
2019-05-22T18:36:20.735Z,20.03
2019-05-22T18:38:52.280Z,14.07
2019-05-22T18:41:21.231Z,13.03
2019-05-22T18:43:50.564Z,11.33
2019-05-22T18:46:19.642Z,14.47
2019-05-22T18:48:48.456Z,13.13
2019-05-22T18:51:17.381Z,12.43
2019-05-22T18:53:46.151Z,10.17
2019-05-22T18:56:14.729Z,9.93
2019-05-22T18:58:44.099Z,10.43
2019-05-22T19:01:16.202Z,15.23
2019-05-22T19:03:43.456Z,12.80
2019-05-22T19:06:12.273Z,11.30
2019-05-22T19:08:41.016Z,11.27
2019-05-22T19:11:10.282Z,15.37
2019-05-22T19:13:38.757Z,16.97
2019-05-22T19:16:07.767Z,12.63
2019-05-22T19:18:36.632Z,9.77
2019-05-22T19:21:05.331Z,10.97
2019-05-22T19:23:33.801Z,12.80
2019-05-22T19:26:05.530Z,13.00
2019-05-22T19:28:42.872Z,16.40
2019-05-22T19:31:03.298Z,18.53
2019-05-22T19:33:33.528Z,10.77
2019-05-22T19:36:02.072Z,16.20
2019-05-22T19:38:30.665Z,12.83
2019-05-22T19:40:59.895Z,17.27
2019-05-22T19:43:28.568Z,22.17
2019-05-22T19:45:57.082Z,11.73
2019-05-22T19:48:25.576Z,17.67
2019-05-22T19:50:54.342Z,16.47
2019-05-22T19:53:23.127Z,13.60
2019-05-22T19:55:52.967Z,18.70
2019-05-22T19:58:22.564Z,13.37
2019-05-22T20:00:51.565Z,14.23
2019-05-22T20:03:21.067Z,22.27
2019-05-22T20:05:49.933Z,13.33
2019-05-22T20:08:18.566Z,19.03
2019-05-22T20:10:51.376Z,17.13
2019-05-22T20:13:23.057Z,14.73
2019-05-22T20:15:51.925Z,16.50
2019-05-22T20:18:20.643Z,16.33
2019-05-22T20:20:49.302Z,15.93
2019-05-22T20:23:34.592Z,14.40
2019-05-22T20:25:51.204Z,11.73
2019-05-22T20:28:20.096Z,13.60
2019-05-22T20:30:49.213Z,17.33
2019-05-22T20:33:18.198Z,19.57
2019-05-22T20:35:46.729Z,18.80
2019-05-22T20:38:16.247Z,17.33
2019-05-22T20:40:45.399Z,12.77
2019-05-22T20:43:23.047Z,25.70
2019-05-22T20:45:53.601Z,27.33
2019-05-22T20:48:28.359Z,23.00
2019-05-22T20:50:59.119Z,24.27
2019-05-22T20:53:28.577Z,20.27
2019-05-22T20:55:58.350Z,17.60
2019-05-22T20:58:28.492Z,20.67
2019-05-22T21:00:57.298Z,23.50
2019-05-22T21:03:26.038Z,22.30
2019-05-22T21:05:54.608Z,16.60
2019-05-22T21:08:25.404Z,25.37
2019-05-22T21:10:56.212Z,20.23
2019-05-22T21:13:26.105Z,17.93
2019-05-22T21:15:55.102Z,18.00
2019-05-22T21:18:25.650Z,20.50
2019-05-22T21:20:59.407Z,19.70
2019-05-22T21:23:29.698Z,19.70
2019-05-22T21:26:00.052Z,21.93
2019-05-22T21:28:28.905Z,23.57
2019-05-22T21:30:57.713Z,18.70
2019-05-22T21:33:26.380Z,29.53
2019-05-22T21:35:55.440Z,20.03
2019-05-22T21:38:24.892Z,22.77
2019-05-22T21:40:56.008Z,24.60
2019-05-22T21:43:24.697Z,22.33
2019-05-22T21:45:53.316Z,23.50
2019-05-22T21:48:22.594Z,17.70
2019-05-22T21:50:51.229Z,23.67
2019-05-22T21:53:20.096Z,23.50
2019-05-22T21:56:03.385Z,22.33
2019-05-22T21:58:19.460Z,21.50
2019-05-22T22:00:57.104Z,25.30
2019-05-22T22:03:31.710Z,22.03
2019-05-22T22:06:01.606Z,24.67
2019-05-22T22:08:30.704Z,24.87
2019-05-22T22:10:59.152Z,23.10
2019-05-22T22:13:29.739Z,24.63
2019-05-22T22:15:59.055Z,26.83
2019-05-22T22:18:27.814Z,26.47
2019-05-22T22:20:58.079Z,21.47
2019-05-22T22:23:27.702Z,22.47
2019-05-22T22:25:56.251Z,24.90
2019-05-22T22:28:25.571Z,24.57
2019-05-22T22:30:57.650Z,25.70
2019-05-22T22:33:28.910Z,26.00
2019-05-22T22:35:57.672Z,23.30
2019-05-22T22:38:27.872Z,20.40
2019-05-22T22:40:57.281Z,24.57
2019-05-22T22:43:32.500Z,27.73
2019-05-22T22:46:10.661Z,22.50
2019-05-22T22:48:40.124Z,21.23
2019-05-22T22:51:12.558Z,25.50
2019-05-22T22:53:43.728Z,23.53
2019-05-22T22:56:15.181Z,22.13
2019-05-22T22:58:43.821Z,21.20
2019-05-22T23:01:28.992Z,35.80
2019-05-22T23:04:00.966Z,21.53
2019-05-22T23:06:31.032Z,25.93
2019-05-22T23:09:00.787Z,25.30
2019-05-22T23:11:30.755Z,27.77
2019-05-22T23:14:00.750Z,26.33
2019-05-22T23:16:30.100Z,25.57
2019-05-22T23:19:18.012Z,23.53
2019-05-22T23:21:48.709Z,28.63
2019-05-22T23:24:19.007Z,25.50
2019-05-22T23:26:48.053Z,30.33
2019-05-22T23:29:17.740Z,26.10
2019-05-22T23:31:46.719Z,23.97
2019-05-22T23:34:15.657Z,27.10
2019-05-22T23:36:45.321Z,29.17
2019-05-22T23:39:17.517Z,26.33
2019-05-22T23:41:46.572Z,28.27
2019-05-22T23:44:18.226Z,29.07
2019-05-22T23:46:47.538Z,30.20
2019-05-22T23:49:16.685Z,28.73
2019-05-22T23:51:45.311Z,24.73
2019-05-22T23:54:14.648Z,29.50
2019-05-22T23:56:44.363Z,26.30
2019-05-22T23:59:13.852Z,27.93
